createdAt,value
2022-12-22T00:01:53.027Z,101236.81
2022-12-22T00:04:38.026Z,101228.03
2022-12-22T00:07:23.356Z,101230.97
2022-12-22T00:10:08.299Z,101233.94
2022-12-22T00:12:53.618Z,101236.13
2022-12-22T00:15:39.005Z,101239.78
2022-12-22T00:18:24.222Z,101231.72
2022-12-22T00:21:09.061Z,101229.16
2022-12-22T00:23:53.876Z,101231.72
2022-12-22T00:26:38.895Z,101226.97
2022-12-22T00:29:24.181Z,101209.63
2022-12-22T00:32:09.144Z,101217.50
2022-12-22T00:35:00.431Z,101224.97
2022-12-22T00:37:51.937Z,101224.41
2022-12-22T00:40:43.405Z,101210.75
2022-12-22T00:43:28.252Z,101213.66
2022-12-22T00:46:14.069Z,101222.59
2022-12-22T00:49:01.284Z,101228.03
2022-12-22T00:51:46.647Z,101222.59
2022-12-22T00:54:34.408Z,101224.06
2022-12-22T00:57:20.183Z,101223.31
2022-12-22T01:00:06.860Z,101220.00
2022-12-22T01:02:52.198Z,101221.47
2022-12-22T01:05:37.508Z,101227.34
2022-12-22T01:08:22.611Z,101229.31
2022-12-22T01:11:07.773Z,101229.50
2022-12-22T01:13:52.463Z,101233.94
2022-12-22T01:16:38.435Z,101232.63
2022-12-22T01:19:23.524Z,101220.75
2022-12-22T01:22:08.332Z,101224.03
2022-12-22T01:24:53.152Z,101216.34
2022-12-22T01:27:37.877Z,101218.34
2022-12-22T01:30:23.246Z,101216.16
2022-12-22T01:33:08.002Z,101221.47
2022-12-22T01:35:53.258Z,101224.03
2022-12-22T01:38:38.017Z,101209.06
2022-12-22T01:41:24.313Z,101204.00
2022-12-22T01:44:09.640Z,101200.88
2022-12-22T01:47:00.427Z,101188.28
2022-12-22T01:49:58.793Z,101189.19
2022-12-22T01:52:50.244Z,101190.91
2022-12-22T01:55:39.570Z,101201.69
2022-12-22T01:58:34.441Z,101186.88
2022-12-22T02:01:19.464Z,101181.78
2022-12-22T02:04:04.181Z,101183.22
2022-12-22T02:06:59.973Z,101179.41
2022-12-22T02:10:04.266Z,101183.03
2022-12-22T02:12:57.557Z,101183.41
2022-12-22T02:15:55.170Z,101184.31
2022-12-22T02:18:49.551Z,101186.63
2022-12-22T02:21:43.085Z,101193.03
2022-12-22T02:24:48.988Z,101185.50
2022-12-22T02:27:34.185Z,101193.94
2022-12-22T02:30:25.561Z,101191.94
2022-12-22T02:33:10.425Z,101200.69
2022-12-22T02:36:29.819Z,101204.91
2022-12-22T02:39:27.849Z,101203.06
2022-12-22T02:42:35.191Z,101205.22
2022-12-22T02:45:42.839Z,101180.25
2022-12-22T02:48:36.288Z,101172.72
2022-12-22T02:51:36.275Z,101167.81
2022-12-22T02:54:23.552Z,101168.72
2022-12-22T02:57:08.410Z,101166.34
2022-12-22T02:59:53.286Z,101167.63
2022-12-22T03:02:39.325Z,101158.50
2022-12-22T03:05:24.949Z,101155.03
2022-12-22T03:08:09.615Z,101154.47
2022-12-22T03:10:55.026Z,101153.56
2022-12-22T03:13:40.255Z,101144.25
2022-12-22T03:16:25.205Z,101137.47
2022-12-22T03:19:10.297Z,101122.16
2022-12-22T03:21:55.146Z,101110.13
2022-12-22T03:24:39.894Z,101111.94
2022-12-22T03:27:06.282Z,101111.94
2022-12-22T03:29:32.653Z,101123.97
2022-12-22T03:31:59.244Z,101125.78
2022-12-22T03:34:25.785Z,101127.25
2022-12-22T03:36:52.218Z,101124.38
2022-12-22T03:39:18.654Z,101126.97
2022-12-22T03:42:03.587Z,101125.88
2022-12-22T03:44:48.454Z,101126.06
2022-12-22T03:47:14.964Z,101123.28
2022-12-22T03:49:41.376Z,101106.16
2022-12-22T03:52:07.834Z,101098.47
2022-12-22T03:54:34.229Z,101102.13
2022-12-22T03:57:00.628Z,101102.13
2022-12-22T03:59:27.035Z,101109.03
2022-12-22T04:01:54.647Z,101119.78
2022-12-22T04:04:25.179Z,101120.66
2022-12-22T04:06:52.014Z,101123.22
2022-12-22T04:09:18.551Z,101137.47
2022-12-22T04:12:03.575Z,101136.75
2022-12-22T04:14:34.304Z,101138.19
2022-12-22T04:17:02.671Z,101129.59
2022-12-22T04:19:29.742Z,101115.94
2022-12-22T04:21:56.195Z,101120.28
2022-12-22T04:24:22.923Z,101138.19
2022-12-22T04:26:50.295Z,101138.19
2022-12-22T04:29:16.797Z,101144.38
2022-12-22T04:31:43.965Z,101140.16
2022-12-22T04:34:10.557Z,101130.88
2022-12-22T04:36:37.015Z,101127.38
2022-12-22T04:39:03.645Z,101146.41
2022-12-22T04:41:30.082Z,101152.81
2022-12-22T04:43:56.508Z,101146.09
2022-12-22T04:46:22.940Z,101143.34
2022-12-22T04:48:53.124Z,101139.69
2022-12-22T04:51:22.569Z,101123.78
2022-12-22T04:53:49.013Z,101115.75
2022-12-22T04:56:15.426Z,101109.16
2022-12-22T04:58:41.821Z,101113.38
2022-12-22T05:01:10.944Z,101116.84
2022-12-22T05:03:37.552Z,101112.06
2022-12-22T05:06:04.293Z,101113.69
2022-12-22T05:08:30.770Z,101118.81
2022-12-22T05:10:57.223Z,101118.81
2022-12-22T05:13:23.612Z,101122.13
2022-12-22T05:15:50.031Z,101129.94
2022-12-22T05:18:16.474Z,101121.56
2022-12-22T05:20:42.876Z,101119.56
2022-12-22T05:23:09.335Z,101122.84
2022-12-22T05:25:35.873Z,101126.28
2022-12-22T05:28:02.710Z,101128.84
2022-12-22T05:30:29.242Z,101126.47
2022-12-22T05:32:55.634Z,101116.44
2022-12-22T05:35:22.075Z,101123.22
2022-12-22T05:37:48.483Z,101117.34
2022-12-22T05:40:15.294Z,101108.91
2022-12-22T05:42:41.777Z,101099.44
2022-12-22T05:45:17.256Z,101118.25
2022-12-22T05:47:45.633Z,101116.25
2022-12-22T05:50:14.129Z,101121.56
2022-12-22T05:52:40.904Z,101121.56
2022-12-22T05:55:08.299Z,101111.91
2022-12-22T05:57:35.316Z,101100.94
2022-12-22T06:00:02.185Z,101098.38
2022-12-22T06:02:28.831Z,101091.47
2022-12-22T06:04:55.383Z,101089.22
2022-12-22T06:07:21.927Z,101085.53
2022-12-22T06:09:48.341Z,101079.34
2022-12-22T06:12:14.879Z,101080.09
2022-12-22T06:14:41.348Z,101085.19
2022-12-22T06:17:07.799Z,101083.53
2022-12-22T06:19:34.197Z,101089.41
2022-12-22T06:22:00.853Z,101094.53
2022-12-22T06:24:27.377Z,101093.59
2022-12-22T06:26:53.867Z,101091.97
2022-12-22T06:29:20.313Z,101094.09
2022-12-22T06:31:46.817Z,101093.38
2022-12-22T06:34:13.568Z,101106.72
2022-12-22T06:36:40.042Z,101103.81
2022-12-22T06:39:06.770Z,101111.47
2022-12-22T06:41:52.027Z,101119.16
2022-12-22T06:44:18.486Z,101107.50
2022-12-22T06:46:45.060Z,101103.47
2022-12-22T06:49:11.715Z,101118.81
2022-12-22T06:51:38.116Z,101113.69
2022-12-22T06:54:04.669Z,101108.19
2022-12-22T06:56:31.177Z,101106.72
2022-12-22T06:58:57.660Z,101100.72
2022-12-22T07:01:24.684Z,101118.03
2022-12-22T07:03:51.419Z,101120.75
2022-12-22T07:06:20.729Z,101108.91
2022-12-22T07:08:48.230Z,101106.34
2022-12-22T07:11:15.568Z,101127.31
2022-12-22T07:13:42.093Z,101133.00
2022-12-22T07:16:10.241Z,101118.03
2022-12-22T07:18:40.135Z,101120.75
2022-12-22T07:21:09.482Z,101134.59
2022-12-22T07:23:36.219Z,101140.09
2022-12-22T07:26:03.275Z,101140.81
2022-12-22T07:28:32.029Z,101136.00
2022-12-22T07:30:58.500Z,101153.00
2022-12-22T07:33:25.078Z,101161.75
2022-12-22T07:36:10.008Z,101164.72
2022-12-22T07:38:39.051Z,101173.66
2022-12-22T07:41:27.574Z,101171.66
2022-12-22T07:43:55.735Z,101169.31
2022-12-22T07:46:23.452Z,101162.16
2022-12-22T07:49:08.213Z,101155.19
2022-12-22T07:51:36.826Z,101173.00
2022-12-22T07:54:08.198Z,101164.44
2022-12-22T07:56:35.146Z,101165.72
2022-12-22T07:59:01.995Z,101169.22
2022-12-22T08:01:28.610Z,101171.22
2022-12-22T08:03:55.293Z,101179.97
2022-12-22T08:06:21.725Z,101176.25
2022-12-22T08:08:48.224Z,101185.75
2022-12-22T08:11:14.649Z,101183.03
2022-12-22T08:13:43.376Z,101187.22
2022-12-22T08:16:13.324Z,101178.50
2022-12-22T08:18:40.403Z,101183.03
2022-12-22T08:21:08.551Z,101171.88
2022-12-22T08:23:35.934Z,101164.19
2022-12-22T08:26:10.532Z,101167.13
2022-12-22T08:28:54.626Z,101167.13
2022-12-22T08:31:26.313Z,101158.53
2022-12-22T08:33:54.642Z,101156.38
2022-12-22T08:36:21.128Z,101148.84
2022-12-22T08:38:47.878Z,101143.34
2022-12-22T08:41:16.266Z,101145.50
2022-12-22T08:43:42.717Z,101147.69
2022-12-22T08:46:15.115Z,101161.31
2022-12-22T08:48:41.510Z,101152.31
2022-12-22T08:51:07.976Z,101130.53
2022-12-22T08:56:20.753Z,101138.47
2022-12-22T08:58:47.188Z,101137.19
2022-12-22T09:01:26.097Z,101131.19
2022-12-22T09:03:54.006Z,101132.84
2022-12-22T09:06:27.254Z,101130.03
2022-12-22T09:08:59.957Z,101124.84
2022-12-22T09:11:27.995Z,101133.19
2022-12-22T09:13:57.988Z,101133.19
2022-12-22T09:16:26.125Z,101129.41
2022-12-22T09:18:52.821Z,101131.72
2022-12-22T09:21:19.307Z,101125.13
2022-12-22T09:23:45.683Z,101122.16
2022-12-22T09:26:15.326Z,101130.91
2022-12-22T09:28:48.251Z,101124.31
2022-12-22T09:31:17.664Z,101122.25
2022-12-22T09:33:44.078Z,101133.72
2022-12-22T09:36:13.474Z,101136.28
2022-12-22T09:38:41.331Z,101137.03
2022-12-22T09:41:23.909Z,101143.06
2022-12-22T09:43:50.550Z,101139.66
2022-12-22T09:46:26.477Z,101136.69
2022-12-22T09:48:54.087Z,101133.72
2022-12-22T09:51:26.766Z,101142.16
2022-12-22T09:54:01.863Z,101142.56
2022-12-22T09:56:38.876Z,101137.09
2022-12-22T09:59:16.480Z,101126.69
2022-12-22T10:02:24.308Z,101135.78
2022-12-22T10:05:02.480Z,101127.44
2022-12-22T10:07:40.523Z,101124.16
2022-12-22T10:10:14.724Z,101125.94
2022-12-22T10:12:41.123Z,101111.09
2022-12-22T10:15:11.191Z,101109.47
2022-12-22T10:17:38.917Z,101107.41
2022-12-22T10:20:28.434Z,101108.28
2022-12-22T10:23:01.873Z,101118.69
2022-12-22T10:26:00.628Z,101116.88
2022-12-22T10:28:30.416Z,101105.25
2022-12-22T10:31:30.414Z,101099.53
2022-12-22T10:34:11.173Z,101104.41
2022-12-22T10:36:38.536Z,101101.34
2022-12-22T10:39:08.410Z,101108.03
2022-12-22T10:41:39.880Z,101100.84
2022-12-22T10:44:15.987Z,101095.47
2022-12-22T10:46:46.118Z,101098.66
2022-12-22T10:49:27.445Z,101097.34
2022-12-22T10:52:15.281Z,101101.16
2022-12-22T10:54:44.086Z,101085.31
2022-12-22T10:57:13.142Z,101093.31
2022-12-22T10:59:59.440Z,101106.59
2022-12-22T11:02:38.017Z,101120.00
2022-12-22T11:05:11.717Z,101118.16
2022-12-22T11:07:44.648Z,101115.00
2022-12-22T11:10:14.092Z,101104.28
2022-12-22T11:12:54.014Z,101110.81
2022-12-22T11:15:34.304Z,101100.16
2022-12-22T11:18:18.740Z,101107.09
2022-12-22T11:20:54.083Z,101114.38
2022-12-22T11:23:26.370Z,101101.13
2022-12-22T11:26:21.241Z,101102.34
2022-12-22T11:29:30.824Z,101093.66
2022-12-22T11:32:09.230Z,101089.59
2022-12-22T11:35:03.887Z,101076.78
2022-12-22T11:37:35.797Z,101072.16
2022-12-22T11:40:17.265Z,101065.69
2022-12-22T11:43:06.501Z,101063.44
2022-12-22T11:45:52.121Z,101060.88
2022-12-22T11:48:33.256Z,101051.94
2022-12-22T11:51:27.256Z,101051.53
2022-12-22T11:54:28.902Z,101053.06
2022-12-22T11:57:08.056Z,101064.09
2022-12-22T12:00:02.822Z,101041.31
2022-12-22T12:02:52.805Z,101047.41
2022-12-22T12:05:31.448Z,101046.84
2022-12-22T12:08:19.137Z,101024.97
2022-12-22T12:10:51.747Z,101007.31
2022-12-22T12:13:38.199Z,100996.28
2022-12-22T12:16:24.647Z,100984.41
2022-12-22T12:19:26.796Z,100989.97
2022-12-22T12:21:57.960Z,100976.56
2022-12-22T12:24:45.388Z,100980.47
2022-12-22T12:27:39.103Z,100978.53
2022-12-22T12:30:37.400Z,100987.56
2022-12-22T12:33:17.352Z,100996.16
2022-12-22T12:35:56.148Z,100996.75
2022-12-22T12:39:09.492Z,100997.97
2022-12-22T12:41:48.310Z,100998.56
2022-12-22T12:44:18.800Z,100999.75
2022-12-22T12:46:51.338Z,100986.03
2022-12-22T12:49:36.059Z,100978.94
2022-12-22T12:52:07.594Z,100983.31
2022-12-22T12:54:42.668Z,100974.84
2022-12-22T12:57:28.602Z,100975.03
2022-12-22T12:59:57.959Z,100976.97
2022-12-22T13:02:27.717Z,100973.53
2022-12-22T13:05:12.428Z,100983.59
2022-12-22T13:08:08.176Z,100986.94
2022-12-22T13:10:59.601Z,100987.66
2022-12-22T13:13:25.980Z,100988.28
2022-12-22T13:16:04.581Z,100976.81
2022-12-22T13:18:33.845Z,100976.19
2022-12-22T13:21:42.434Z,100969.25
2022-12-22T13:24:23.560Z,100968.03
2022-12-22T13:26:45.188Z,100980.06
2022-12-22T13:29:11.537Z,100967.59
2022-12-22T13:32:02.750Z,100960.81
2022-12-22T13:35:04.273Z,100964.09
2022-12-22T13:37:29.670Z,100960.47
2022-12-22T13:40:23.522Z,100955.63
2022-12-22T13:42:57.593Z,100953.06
2022-12-22T13:45:42.988Z,100944.19
2022-12-22T13:48:16.693Z,100947.19
2022-12-22T13:50:48.075Z,100945.63
2022-12-22T13:53:49.469Z,100944.41
2022-12-22T13:56:08.478Z,100941.41
2022-12-22T13:58:41.386Z,100934.63
2022-12-22T14:01:10.846Z,100935.84
2022-12-22T14:04:01.818Z,100947.78
2022-12-22T14:06:38.678Z,100953.97
2022-12-22T14:09:12.133Z,100952.91
2022-12-22T14:11:38.998Z,100950.94
2022-12-22T14:14:10.221Z,100945.34
2022-12-22T14:16:44.251Z,100948.94
2022-12-22T14:19:14.791Z,100947.59
2022-12-22T14:21:49.069Z,100945.03
2022-12-22T14:24:22.457Z,100950.16
2022-12-22T14:26:49.498Z,100937.19
2022-12-22T14:29:21.432Z,100943.25
2022-12-22T14:31:55.775Z,100940.94
2022-12-22T14:34:27.729Z,100942.78
2022-12-22T14:36:54.289Z,100947.72
2022-12-22T14:39:24.206Z,100955.25
2022-12-22T14:41:54.768Z,100951.34
2022-12-22T14:44:28.427Z,100949.53
2022-12-22T14:47:11.931Z,100941.22
2022-12-22T14:49:50.805Z,100936.84
2022-12-22T14:52:20.134Z,100935.03
2022-12-22T14:54:49.668Z,100933.22
2022-12-22T14:57:21.169Z,100935.19
2022-12-22T15:00:06.412Z,100932.94
2022-12-22T15:02:40.203Z,100930.53
2022-12-22T15:05:36.157Z,100933.84
2022-12-22T15:08:08.506Z,100932.63
2022-12-22T15:10:42.702Z,100932.78
2022-12-22T15:13:18.999Z,100930.38
2022-12-22T15:15:45.438Z,100927.66
2022-12-22T15:18:15.070Z,100928.72
2022-12-22T15:20:41.920Z,100931.28
2022-12-22T15:23:13.528Z,100932.06
2022-12-22T15:25:39.945Z,100937.59
2022-12-22T15:28:06.419Z,100933.22
2022-12-22T15:30:32.935Z,100938.03
2022-12-22T15:32:59.483Z,100934.53
2022-12-22T15:35:31.048Z,100921.25
2022-12-22T15:37:58.202Z,100916.53
2022-12-22T15:40:25.847Z,100921.94
2022-12-22T15:42:52.461Z,100922.69
2022-12-22T15:45:21.347Z,100919.63
2022-12-22T15:47:50.958Z,100912.50
2022-12-22T15:50:24.592Z,100911.13
2022-12-22T15:52:54.778Z,100919.38
2022-12-22T15:55:21.794Z,100913.03
2022-12-22T15:57:51.599Z,100908.84
2022-12-22T16:00:18.983Z,100908.50
2022-12-22T16:02:45.598Z,100906.31
2022-12-22T16:05:14.964Z,100913.66
2022-12-22T16:07:50.390Z,100913.50
2022-12-22T16:10:23.582Z,100908.81
2022-12-22T16:12:56.497Z,100904.28
2022-12-22T16:15:22.895Z,100903.78
2022-12-22T16:17:51.967Z,100903.84
2022-12-22T16:20:18.997Z,100898.25
2022-12-22T16:22:45.443Z,100901.09
2022-12-22T16:25:15.553Z,100903.88
2022-12-22T16:27:42.149Z,100890.06
2022-12-22T16:30:22.356Z,100890.38
2022-12-22T16:32:49.190Z,100884.19
2022-12-22T16:35:18.844Z,100891.84
2022-12-22T16:37:46.307Z,100898.44
2022-12-22T16:40:12.995Z,100887.97
2022-12-22T16:45:29.740Z,100888.41
2022-12-22T16:48:00.748Z,100897.56
2022-12-22T16:50:32.971Z,100907.03
2022-12-22T16:53:00.895Z,100896.06
2022-12-22T16:55:28.470Z,100896.66
2022-12-22T16:57:55.107Z,100894.50
2022-12-22T17:00:24.253Z,100888.13
2022-12-22T17:02:55.378Z,100884.19
2022-12-22T17:05:28.947Z,100883.59
2022-12-22T17:07:56.465Z,100884.09
2022-12-22T17:10:23.614Z,100893.25
2022-12-22T17:12:52.939Z,100905.31
2022-12-22T17:15:22.033Z,100904.91
2022-12-22T17:17:49.069Z,100917.75
2022-12-22T17:20:17.725Z,100914.78
2022-12-22T17:22:58.855Z,100917.50
2022-12-22T17:25:30.737Z,100922.94
2022-12-22T17:28:00.947Z,100915.59
2022-12-22T17:30:28.377Z,100911.53
2022-12-22T17:32:54.905Z,100912.03
2022-12-22T17:35:25.496Z,100908.44
2022-12-22T17:37:53.168Z,100907.94
2022-12-22T17:40:26.527Z,100906.69
2022-12-22T17:42:53.657Z,100909.84
2022-12-22T17:45:20.873Z,100914.53
2022-12-22T17:47:48.045Z,100913.78
2022-12-22T17:50:16.794Z,100907.94
2022-12-22T17:52:43.641Z,100906.28
2022-12-22T17:55:49.750Z,100893.34
2022-12-22T17:58:07.221Z,100895.81
2022-12-22T18:00:33.644Z,100899.06
2022-12-22T18:03:00.220Z,100900.19
2022-12-22T18:05:30.542Z,100905.31
2022-12-22T18:07:58.881Z,100896.44
2022-12-22T18:10:29.965Z,100904.94
2022-12-22T18:12:58.432Z,100899.81
2022-12-22T18:15:27.435Z,100897.03
2022-12-22T18:17:54.327Z,100909.81
2022-12-22T18:20:24.505Z,100899.56
2022-12-22T18:23:02.222Z,100915.06
2022-12-22T18:25:32.088Z,100909.63
2022-12-22T18:27:58.848Z,100907.84
2022-12-22T18:30:27.861Z,100904.69
2022-12-22T18:32:55.919Z,100905.09
2022-12-22T18:35:26.278Z,100898.19
2022-12-22T18:37:54.485Z,100895.06
2022-12-22T18:40:28.300Z,100888.75
2022-12-22T18:42:55.858Z,100886.50
2022-12-22T18:45:24.799Z,100880.97
2022-12-22T18:47:51.211Z,100885.19
2022-12-22T18:50:25.460Z,100889.06
2022-12-22T18:52:52.705Z,100886.84
2022-12-22T18:55:28.248Z,100900.53
2022-12-22T18:57:56.731Z,100904.19
2022-12-22T19:00:34.695Z,100898.47
2022-12-22T19:03:02.414Z,100894.53
2022-12-22T19:05:31.781Z,100890.06
2022-12-22T19:07:59.277Z,100900.00
2022-12-22T19:10:31.038Z,100904.63
2022-12-22T19:12:57.839Z,100911.13
2022-12-22T19:15:30.769Z,100908.91
2022-12-22T19:17:57.402Z,100918.88
2022-12-22T19:20:25.063Z,100916.13
2022-12-22T19:22:51.945Z,100918.09
2022-12-22T19:25:24.194Z,100915.91
2022-12-22T19:27:53.306Z,100921.59
2022-12-22T19:30:22.802Z,100924.47
2022-12-22T19:33:16.937Z,100927.94
2022-12-22T19:35:43.319Z,100933.81
2022-12-22T19:38:21.850Z,100927.34
2022-12-22T19:40:50.727Z,100929.19
2022-12-22T19:43:18.852Z,100927.34
2022-12-22T19:45:50.319Z,100931.16
2022-12-22T19:48:18.299Z,100928.41
2022-12-22T19:50:45.979Z,100922.22
2022-12-22T19:53:13.209Z,100920.59
2022-12-22T19:55:51.875Z,100906.88
2022-12-22T19:58:24.954Z,100922.56
2022-12-22T20:00:53.020Z,100920.91
2022-12-22T20:03:23.101Z,100918.19
2022-12-22T20:05:49.987Z,100914.72
2022-12-22T20:08:16.648Z,100903.00
2022-12-22T20:10:44.529Z,100904.66
2022-12-22T20:13:21.541Z,100896.63
2022-12-22T20:15:48.959Z,100887.00
2022-12-22T20:18:19.138Z,100889.41
2022-12-22T20:20:57.654Z,100890.13
2022-12-22T20:23:24.942Z,100906.56
2022-12-22T20:26:00.211Z,100905.06
2022-12-22T20:28:28.866Z,100899.47
2022-12-22T20:30:56.308Z,100902.94
2022-12-22T20:33:24.730Z,100905.19
2022-12-22T20:35:52.646Z,100899.00
2022-12-22T20:38:25.500Z,100899.72
2022-12-22T20:40:51.970Z,100910.97
2022-12-22T20:43:22.231Z,100916.25
2022-12-22T20:45:51.944Z,100917.00
2022-12-22T20:48:37.241Z,100914.84
2022-12-22T20:51:05.910Z,100917.09
2022-12-22T20:53:33.139Z,100923.50
2022-12-22T20:56:01.425Z,100929.03
2022-12-22T20:58:33.027Z,100936.72
2022-12-22T21:01:01.358Z,100932.59
2022-12-22T21:03:28.327Z,100924.28
2022-12-22T21:05:54.871Z,100919.25
2022-12-22T21:08:24.058Z,100914.88
2022-12-22T21:10:52.502Z,100914.06
2022-12-22T21:13:19.930Z,100908.44
2022-12-22T21:15:49.818Z,100910.81
2022-12-22T21:18:21.978Z,100917.75
2022-12-22T21:20:49.464Z,100920.88
2022-12-22T21:23:19.038Z,100927.31
2022-12-22T21:25:49.899Z,100924.41
2022-12-22T21:28:25.740Z,100925.97
2022-12-22T21:30:52.654Z,100940.91
2022-12-22T21:33:19.167Z,100941.25
2022-12-22T21:35:45.654Z,100954.19
2022-12-22T21:38:17.745Z,100949.66
2022-12-22T21:40:46.850Z,100922.81
2022-12-22T21:43:14.837Z,100903.34
2022-12-22T21:45:43.213Z,100890.19
2022-12-22T21:48:14.483Z,100911.50
2022-12-22T21:50:41.690Z,100919.16
2022-12-22T21:53:08.396Z,100922.84
2022-12-22T21:55:37.916Z,100940.13
2022-12-22T21:58:05.531Z,100949.00
2022-12-22T22:00:32.835Z,100951.34
2022-12-22T22:03:01.785Z,100940.53
2022-12-22T22:05:39.383Z,100946.44
2022-12-22T22:08:08.883Z,100945.53
2022-12-22T22:10:41.521Z,100932.59
2022-12-22T22:13:11.612Z,100939.94
2022-12-22T22:15:38.091Z,100926.75
2022-12-22T22:18:07.291Z,100914.88
2022-12-22T22:20:34.684Z,100917.25
2022-12-22T22:23:02.168Z,100917.69
2022-12-22T22:25:28.785Z,100922.31
2022-12-22T22:27:58.690Z,100919.00
2022-12-22T22:30:26.733Z,100917.50
2022-12-22T22:32:54.541Z,100917.84
2022-12-22T22:35:21.393Z,100931.94
2022-12-22T22:37:50.665Z,100930.44
2022-12-22T22:40:20.642Z,100912.78
2022-12-22T22:42:47.588Z,100899.22
2022-12-22T22:45:19.708Z,100896.75
2022-12-22T22:47:46.090Z,100904.16
2022-12-22T22:50:13.885Z,100910.81
2022-12-22T22:53:33.030Z,100917.00
2022-12-22T22:56:02.936Z,100909.84
2022-12-22T22:58:29.663Z,100907.44
2022-12-22T23:01:03.287Z,100902.66
2022-12-22T23:03:30.666Z,100893.91
2022-12-22T23:06:04.575Z,100900.88
2022-12-22T23:08:31.177Z,100914.69
2022-12-22T23:10:59.391Z,100905.72
2022-12-22T23:13:25.871Z,100909.53
2022-12-22T23:15:57.090Z,100907.59
2022-12-22T23:18:23.701Z,100897.38
2022-12-22T23:20:50.372Z,100896.06
2022-12-22T23:23:17.018Z,100890.78
2022-12-22T23:25:49.743Z,100898.13
2022-12-22T23:28:17.258Z,100906.97
2022-12-22T23:30:45.863Z,100916.63
2022-12-22T23:33:15.416Z,100933.06
2022-12-22T23:35:42.779Z,100943.28
2022-12-22T23:38:09.794Z,100944.22
2022-12-22T23:40:54.183Z,100930.03
2022-12-22T23:43:21.732Z,100931.56
2022-12-22T23:45:48.209Z,100922.13
2022-12-22T23:48:14.922Z,100904.63
2022-12-22T23:50:41.405Z,100895.56
2022-12-22T23:53:07.860Z,100904.03
2022-12-22T23:55:34.263Z,100900.34
2022-12-22T23:58:00.700Z,100879.66
